createdAt,value
2022-12-03T00:00:13.662Z,1025.89
2022-12-03T00:01:13.560Z,1025.83
2022-12-03T00:02:13.666Z,1025.84
2022-12-03T00:03:13.625Z,1025.81
2022-12-03T00:04:13.499Z,1025.78
2022-12-03T00:05:13.637Z,1025.79
2022-12-03T00:06:13.492Z,1025.80
2022-12-03T00:07:13.489Z,1025.74
2022-12-03T00:08:13.533Z,1025.73
2022-12-03T00:09:13.437Z,1025.73
2022-12-03T00:10:13.454Z,1025.70
2022-12-03T00:11:13.424Z,1025.75
2022-12-03T00:12:13.431Z,1025.72
2022-12-03T00:13:13.377Z,1025.68
2022-12-03T00:14:13.370Z,1025.65
2022-12-03T00:15:13.377Z,1025.76
2022-12-03T00:16:13.465Z,1025.72
2022-12-03T00:17:13.331Z,1025.70
2022-12-03T00:18:13.312Z,1025.64
2022-12-03T00:19:13.319Z,1025.64
2022-12-03T00:20:13.325Z,1025.66
2022-12-03T00:21:13.296Z,1025.61
2022-12-03T00:22:13.294Z,1025.66
2022-12-03T00:23:13.272Z,1025.61
2022-12-03T00:24:13.246Z,1025.61
2022-12-03T00:25:13.235Z,1025.64
2022-12-03T00:26:13.226Z,1025.61
2022-12-03T00:27:13.197Z,1025.58
2022-12-03T00:28:13.202Z,1025.66
2022-12-03T00:29:13.189Z,1025.62
2022-12-03T00:30:13.176Z,1025.65
2022-12-03T00:31:13.208Z,1025.61
2022-12-03T00:32:13.154Z,1025.64
2022-12-03T00:33:13.130Z,1025.58
2022-12-03T00:34:13.109Z,1025.64
2022-12-03T00:35:13.128Z,1025.67
2022-12-03T00:36:13.097Z,1025.64
2022-12-03T00:37:13.089Z,1025.59
2022-12-03T00:38:13.099Z,1025.70
2022-12-03T00:39:13.043Z,1025.60
2022-12-03T00:40:13.067Z,1025.66
2022-12-03T00:41:13.039Z,1025.71
2022-12-03T00:42:13.050Z,1025.61
2022-12-03T00:43:13.002Z,1025.69
2022-12-03T00:44:12.987Z,1025.70
2022-12-03T00:45:12.978Z,1025.67
2022-12-03T00:46:15.761Z,1025.60
2022-12-03T00:47:14.060Z,1025.65
2022-12-03T00:48:12.933Z,1025.58
2022-12-03T00:49:16.912Z,1025.60
2022-12-03T00:50:12.904Z,1025.61
2022-12-03T00:51:12.912Z,1025.69
2022-12-03T00:52:12.880Z,1025.58
2022-12-03T00:53:12.859Z,1025.66
2022-12-03T00:54:12.873Z,1025.66
2022-12-03T00:55:12.853Z,1025.66
2022-12-03T00:56:12.842Z,1025.62
2022-12-03T00:57:12.811Z,1025.66
2022-12-03T00:58:12.792Z,1025.67
2022-12-03T00:59:12.795Z,1025.64
2022-12-03T01:00:12.769Z,1025.67
2022-12-03T01:01:12.786Z,1025.68
2022-12-03T01:02:12.827Z,1025.64
2022-12-03T01:03:12.767Z,1025.65
2022-12-03T01:04:12.767Z,1025.60
2022-12-03T01:05:12.762Z,1025.58
2022-12-03T01:06:12.707Z,1025.54
2022-12-03T01:07:12.692Z,1025.55
2022-12-03T01:08:12.759Z,1025.61
2022-12-03T01:09:12.655Z,1025.65
2022-12-03T01:10:12.639Z,1025.62
2022-12-03T01:11:12.640Z,1025.66
2022-12-03T01:12:12.634Z,1025.68
2022-12-03T01:13:12.618Z,1025.64
2022-12-03T01:14:12.586Z,1025.59
2022-12-03T01:15:12.577Z,1025.69
2022-12-03T01:16:12.647Z,1025.59
2022-12-03T01:17:12.556Z,1025.66
2022-12-03T01:18:12.543Z,1025.74
2022-12-03T01:19:12.764Z,1025.70
2022-12-03T01:20:12.507Z,1025.75
2022-12-03T01:21:12.505Z,1025.70
2022-12-03T01:22:12.482Z,1025.74
2022-12-03T01:23:12.478Z,1025.77
2022-12-03T01:24:12.464Z,1025.68
2022-12-03T01:25:12.458Z,1025.68
2022-12-03T01:26:12.440Z,1025.76
2022-12-03T01:27:12.430Z,1025.69
2022-12-03T01:28:12.409Z,1025.68
2022-12-03T01:29:12.412Z,1025.68
2022-12-03T01:30:12.394Z,1025.75
2022-12-03T01:31:12.421Z,1025.79
2022-12-03T01:32:12.357Z,1025.75
2022-12-03T01:33:12.359Z,1025.72
2022-12-03T01:34:12.358Z,1025.69
2022-12-03T01:35:12.325Z,1025.76
2022-12-03T01:36:12.332Z,1025.77
2022-12-03T01:37:12.302Z,1025.70
2022-12-03T01:38:12.287Z,1025.76
2022-12-03T01:39:12.278Z,1025.78
2022-12-03T01:40:12.293Z,1025.79
2022-12-03T01:41:12.258Z,1025.74
2022-12-03T01:42:12.228Z,1025.86
2022-12-03T01:43:12.237Z,1025.86
2022-12-03T01:44:12.209Z,1025.76
2022-12-03T01:45:12.205Z,1025.83
2022-12-03T01:46:12.280Z,1025.78
2022-12-03T01:47:12.172Z,1025.85
2022-12-03T01:48:12.151Z,1025.81
2022-12-03T01:49:12.149Z,1025.85
2022-12-03T01:50:12.124Z,1025.82
2022-12-03T01:51:12.157Z,1025.83
2022-12-03T01:52:12.096Z,1025.85
2022-12-03T01:53:12.088Z,1025.84
2022-12-03T01:54:12.078Z,1025.87
2022-12-03T01:55:12.069Z,1025.80
2022-12-03T01:56:12.084Z,1025.76
2022-12-03T01:57:12.041Z,1025.79
2022-12-03T01:58:12.015Z,1025.82
2022-12-03T01:59:12.005Z,1025.87
2022-12-03T02:00:12.010Z,1025.80
2022-12-03T02:01:11.992Z,1025.85
2022-12-03T02:02:12.050Z,1025.87
2022-12-03T02:03:11.965Z,1025.87
2022-12-03T02:04:11.960Z,1025.86
2022-12-03T02:05:11.940Z,1025.86
2022-12-03T02:06:11.918Z,1025.86
2022-12-03T02:07:11.900Z,1025.84
2022-12-03T02:08:11.925Z,1025.83
2022-12-03T02:09:11.905Z,1025.87
2022-12-03T02:10:11.872Z,1025.82
2022-12-03T02:11:11.879Z,1025.86
2022-12-03T02:12:11.831Z,1025.84
2022-12-03T02:13:11.821Z,1025.89
2022-12-03T02:14:11.827Z,1025.82
2022-12-03T02:15:11.806Z,1025.75
2022-12-03T02:16:11.896Z,1025.77
2022-12-03T02:17:11.772Z,1025.78
2022-12-03T02:18:11.769Z,1025.81
2022-12-03T02:19:11.754Z,1025.86
2022-12-03T02:20:11.746Z,1025.74
2022-12-03T02:21:11.747Z,1025.70
2022-12-03T02:22:11.716Z,1025.79
2022-12-03T02:23:11.705Z,1025.80
2022-12-03T02:24:11.689Z,1025.87
2022-12-03T02:25:11.674Z,1025.81
2022-12-03T02:26:11.702Z,1025.79
2022-12-03T02:27:11.653Z,1025.80
2022-12-03T02:28:11.632Z,1025.77
2022-12-03T02:29:12.302Z,1025.72
2022-12-03T02:30:11.603Z,1025.76
2022-12-03T02:31:11.659Z,1025.76
2022-12-03T02:32:11.582Z,1025.73
2022-12-03T02:33:11.589Z,1025.77
2022-12-03T02:34:11.551Z,1025.71
2022-12-03T02:35:11.543Z,1025.76
2022-12-03T02:36:11.536Z,1025.76
2022-12-03T02:37:11.515Z,1025.77
2022-12-03T02:38:12.485Z,1025.82
2022-12-03T02:39:11.491Z,1025.80
2022-12-03T02:40:11.475Z,1025.77
2022-12-03T02:41:11.491Z,1025.82
2022-12-03T02:42:11.447Z,1025.81
2022-12-03T02:43:11.442Z,1025.78
2022-12-03T02:44:11.431Z,1025.76
2022-12-03T02:45:11.430Z,1025.79
2022-12-03T02:46:11.466Z,1025.91
2022-12-03T02:47:11.440Z,1025.78
2022-12-03T02:48:11.376Z,1025.91
2022-12-03T02:49:11.386Z,1025.84
2022-12-03T02:50:11.352Z,1025.85
2022-12-03T02:51:11.370Z,1025.84
2022-12-03T02:52:11.322Z,1025.83
2022-12-03T02:53:11.313Z,1025.79
2022-12-03T02:54:11.292Z,1025.79
2022-12-03T02:55:11.276Z,1025.80
2022-12-03T02:56:11.286Z,1025.78
2022-12-03T02:57:11.276Z,1025.83
2022-12-03T02:58:11.241Z,1025.77
2022-12-03T02:59:11.227Z,1025.83
2022-12-03T03:00:11.222Z,1025.72
2022-12-03T03:01:11.263Z,1025.81
2022-12-03T03:02:11.229Z,1025.85
2022-12-03T03:03:11.189Z,1025.76
2022-12-03T03:04:11.158Z,1025.79
2022-12-03T03:05:11.157Z,1025.78
2022-12-03T03:06:11.152Z,1025.79
2022-12-03T03:07:11.140Z,1025.78
2022-12-03T03:08:11.186Z,1025.81
2022-12-03T03:09:11.095Z,1025.87
2022-12-03T03:10:11.086Z,1025.80
2022-12-03T03:11:11.080Z,1025.77
2022-12-03T03:12:11.067Z,1025.89
2022-12-03T03:13:11.047Z,1025.77
2022-12-03T03:14:11.058Z,1025.86
2022-12-03T03:15:11.030Z,1025.85
2022-12-03T03:16:11.060Z,1025.85
2022-12-03T03:17:11.002Z,1025.77
2022-12-03T03:18:10.976Z,1025.81
2022-12-03T03:19:10.966Z,1025.80
2022-12-03T03:20:10.976Z,1025.76
2022-12-03T03:21:10.945Z,1025.83
2022-12-03T03:22:10.940Z,1025.83
2022-12-03T03:23:10.946Z,1025.84
2022-12-03T03:24:10.907Z,1025.83
2022-12-03T03:25:10.900Z,1025.86
2022-12-03T03:26:10.873Z,1025.82
2022-12-03T03:27:10.874Z,1025.78
2022-12-03T03:28:10.847Z,1025.81
2022-12-03T03:29:11.519Z,1025.83
2022-12-03T03:30:10.832Z,1025.73
2022-12-03T03:31:10.862Z,1025.81
2022-12-03T03:32:10.870Z,1025.70
2022-12-03T03:33:10.792Z,1025.76
2022-12-03T03:34:10.784Z,1025.77
2022-12-03T03:35:10.775Z,1025.71
2022-12-03T03:36:10.744Z,1025.78
2022-12-03T03:37:10.754Z,1025.70
2022-12-03T03:38:10.737Z,1025.73
2022-12-03T03:39:10.711Z,1025.62
2022-12-03T03:40:10.698Z,1025.72
2022-12-03T03:41:10.677Z,1025.69
2022-12-03T03:42:10.718Z,1025.71
2022-12-03T03:43:10.664Z,1025.76
2022-12-03T03:44:10.668Z,1025.69
2022-12-03T03:45:10.631Z,1025.72
2022-12-03T03:46:10.682Z,1025.69
2022-12-03T03:47:10.649Z,1025.66
2022-12-03T03:48:10.595Z,1025.67
2022-12-03T03:49:10.587Z,1025.62
2022-12-03T03:50:10.561Z,1025.63
2022-12-03T03:51:10.553Z,1025.63
2022-12-03T03:52:10.556Z,1025.67
2022-12-03T03:53:10.526Z,1025.63
2022-12-03T03:54:10.507Z,1025.61
2022-12-03T03:55:10.537Z,1025.62
2022-12-03T03:56:10.495Z,1025.62
2022-12-03T03:57:10.507Z,1025.62
2022-12-03T03:58:10.456Z,1025.55
2022-12-03T03:59:10.444Z,1025.61
2022-12-03T04:00:10.439Z,1025.54
2022-12-03T04:01:10.473Z,1025.54
2022-12-03T04:02:10.409Z,1025.53
2022-12-03T04:03:10.406Z,1025.42
2022-12-03T04:04:10.460Z,1025.52
2022-12-03T04:05:10.372Z,1025.43
2022-12-03T04:06:10.358Z,1025.47
2022-12-03T04:07:10.364Z,1025.44
2022-12-03T04:08:10.420Z,1025.45
2022-12-03T04:09:10.327Z,1025.46
2022-12-03T04:10:10.300Z,1025.45
2022-12-03T04:11:10.307Z,1025.43
2022-12-03T04:12:10.298Z,1025.43
2022-12-03T04:13:10.275Z,1025.55
2022-12-03T04:14:10.259Z,1025.51
2022-12-03T04:15:10.243Z,1025.45
2022-12-03T04:16:10.297Z,1025.49
2022-12-03T04:17:10.250Z,1025.47
2022-12-03T04:18:10.209Z,1025.44
2022-12-03T04:19:10.193Z,1025.53
2022-12-03T04:20:10.173Z,1025.49
2022-12-03T04:21:10.158Z,1025.47
2022-12-03T04:22:10.153Z,1025.53
2022-12-03T04:23:10.139Z,1025.52
2022-12-03T04:24:10.236Z,1025.49
2022-12-03T04:25:10.107Z,1025.49
2022-12-03T04:26:10.105Z,1025.50
2022-12-03T04:27:10.113Z,1025.53
2022-12-03T04:28:10.094Z,1025.56
2022-12-03T04:29:10.064Z,1025.56
2022-12-03T04:30:10.099Z,1025.52
2022-12-03T04:31:10.096Z,1025.53
2022-12-03T04:32:10.021Z,1025.54
2022-12-03T04:33:10.019Z,1025.58
2022-12-03T04:34:10.000Z,1025.55
2022-12-03T04:35:10.065Z,1025.54
2022-12-03T04:36:09.971Z,1025.54
2022-12-03T04:37:09.959Z,1025.59
2022-12-03T04:38:09.957Z,1025.61
2022-12-03T04:39:09.932Z,1025.56
2022-12-03T04:40:09.937Z,1025.63
2022-12-03T04:41:09.908Z,1025.60
2022-12-03T04:42:09.894Z,1025.61
2022-12-03T04:43:09.890Z,1025.61
2022-12-03T04:44:09.868Z,1025.53
2022-12-03T04:45:09.869Z,1025.56
2022-12-03T04:46:09.929Z,1025.60
2022-12-03T04:47:09.819Z,1025.58
2022-12-03T04:48:09.850Z,1025.56
2022-12-03T04:49:09.809Z,1025.65
2022-12-03T04:50:09.791Z,1025.56
2022-12-03T04:51:09.762Z,1025.52
2022-12-03T04:52:09.756Z,1025.62
2022-12-03T04:53:09.823Z,1025.63
2022-12-03T04:54:09.731Z,1025.62
2022-12-03T04:55:09.724Z,1025.55
2022-12-03T04:56:09.802Z,1025.60
2022-12-03T04:57:09.686Z,1025.74
2022-12-03T04:58:09.702Z,1025.67
2022-12-03T04:59:15.571Z,1025.69
2022-12-03T05:00:10.664Z,1025.67
2022-12-03T05:01:09.712Z,1025.65
2022-12-03T05:02:09.711Z,1025.69
2022-12-03T05:03:09.629Z,1025.70
2022-12-03T05:04:09.604Z,1025.73
2022-12-03T05:05:09.592Z,1025.70
2022-12-03T05:06:09.605Z,1025.69
2022-12-03T05:07:09.564Z,1025.79
2022-12-03T05:08:09.638Z,1025.69
2022-12-03T05:09:09.535Z,1025.66
2022-12-03T05:10:09.544Z,1025.64
2022-12-03T05:11:09.525Z,1025.63
2022-12-03T05:12:09.591Z,1025.61
2022-12-03T05:13:09.509Z,1025.63
2022-12-03T05:14:09.478Z,1025.57
2022-12-03T05:15:09.470Z,1025.59
2022-12-03T05:16:09.488Z,1025.68
2022-12-03T05:17:09.548Z,1025.54
2022-12-03T05:18:09.435Z,1025.63
2022-12-03T05:19:09.408Z,1025.59
2022-12-03T05:20:09.400Z,1025.64
2022-12-03T05:21:09.381Z,1025.56
2022-12-03T05:22:09.370Z,1025.59
2022-12-03T05:23:09.374Z,1025.58
2022-12-03T05:24:09.356Z,1025.48
2022-12-03T05:25:09.323Z,1025.59
2022-12-03T05:26:09.314Z,1025.63
2022-12-03T05:27:09.321Z,1025.56
2022-12-03T05:28:09.295Z,1025.56
2022-12-03T05:29:09.283Z,1025.54
2022-12-03T05:30:09.273Z,1025.59
2022-12-03T05:31:09.331Z,1025.60
2022-12-03T05:32:09.236Z,1025.61
2022-12-03T05:33:09.231Z,1025.51
2022-12-03T05:34:09.241Z,1025.49
2022-12-03T05:35:09.194Z,1025.59
2022-12-03T05:36:09.194Z,1025.49
2022-12-03T05:37:09.187Z,1025.52
2022-12-03T05:38:09.172Z,1025.54
2022-12-03T05:39:09.146Z,1025.44
2022-12-03T05:40:09.130Z,1025.46
2022-12-03T05:41:09.120Z,1025.45
2022-12-03T05:42:09.122Z,1025.47
2022-12-03T05:43:09.112Z,1025.44
2022-12-03T05:44:09.101Z,1025.50
2022-12-03T05:45:09.075Z,1025.48
2022-12-03T05:46:09.138Z,1025.46
2022-12-03T05:47:09.047Z,1025.50
2022-12-03T05:48:09.030Z,1025.40
2022-12-03T05:49:09.053Z,1025.39
2022-12-03T05:50:09.010Z,1025.39
2022-12-03T05:51:08.991Z,1025.45
2022-12-03T05:52:08.987Z,1025.38
2022-12-03T05:53:08.963Z,1025.40
2022-12-03T05:54:08.963Z,1025.47
2022-12-03T05:55:08.938Z,1025.40
2022-12-03T05:56:08.923Z,1025.41
2022-12-03T05:57:09.055Z,1025.44
2022-12-03T05:58:08.918Z,1025.41
2022-12-03T05:59:08.903Z,1025.45
2022-12-03T06:00:08.883Z,1025.42
2022-12-03T06:01:08.855Z,1025.45
2022-12-03T06:02:08.928Z,1025.41
2022-12-03T06:03:08.989Z,1025.43
2022-12-03T06:04:08.934Z,1025.42
2022-12-03T06:05:08.808Z,1025.44
2022-12-03T06:06:08.809Z,1025.41
2022-12-03T06:07:13.733Z,1025.41
2022-12-03T06:08:09.822Z,1025.42
2022-12-03T06:09:08.765Z,1025.40
2022-12-03T06:10:08.747Z,1025.36
2022-12-03T06:11:08.724Z,1025.36
2022-12-03T06:12:12.544Z,1025.38
2022-12-03T06:13:08.727Z,1025.43
2022-12-03T06:14:08.722Z,1025.38
2022-12-03T06:15:08.675Z,1025.34
2022-12-03T06:16:08.705Z,1025.33
2022-12-03T06:17:08.693Z,1025.33
2022-12-03T06:18:08.651Z,1025.27
2022-12-03T06:19:08.651Z,1025.38
2022-12-03T06:20:08.610Z,1025.30
2022-12-03T06:21:08.642Z,1025.33
2022-12-03T06:22:08.608Z,1025.29
2022-12-03T06:23:08.580Z,1025.29
2022-12-03T06:24:08.588Z,1025.33
2022-12-03T06:25:08.543Z,1025.33
2022-12-03T06:26:08.542Z,1025.30
2022-12-03T06:27:08.519Z,1025.26
2022-12-03T06:28:08.537Z,1025.30
2022-12-03T06:29:08.524Z,1025.24
2022-12-03T06:30:08.508Z,1025.30
2022-12-03T06:31:08.507Z,1025.28
2022-12-03T06:32:08.570Z,1025.24
2022-12-03T06:33:08.456Z,1025.23
2022-12-03T06:34:08.451Z,1025.22
2022-12-03T06:35:08.426Z,1025.28
2022-12-03T06:36:09.414Z,1025.24
2022-12-03T06:37:08.405Z,1025.21
2022-12-03T06:38:08.417Z,1025.27
2022-12-03T06:39:08.386Z,1025.26
2022-12-03T06:40:08.414Z,1025.30
2022-12-03T06:41:08.342Z,1025.23
2022-12-03T06:42:08.325Z,1025.25
2022-12-03T06:43:08.442Z,1025.22
2022-12-03T06:44:08.316Z,1025.21
2022-12-03T06:45:08.300Z,1025.17
2022-12-03T06:46:08.356Z,1025.22
2022-12-03T06:47:08.257Z,1025.29
2022-12-03T06:48:08.273Z,1025.26
2022-12-03T06:49:08.259Z,1025.30
2022-12-03T06:50:08.357Z,1025.36
2022-12-03T06:51:08.224Z,1025.33
2022-12-03T06:52:08.198Z,1025.35
2022-12-03T06:53:08.194Z,1025.29
2022-12-03T06:54:08.194Z,1025.25
2022-12-03T06:55:08.156Z,1025.31
2022-12-03T06:56:08.158Z,1025.31
2022-12-03T06:57:08.125Z,1025.32
2022-12-03T06:58:08.125Z,1025.35
2022-12-03T06:59:08.122Z,1025.30
2022-12-03T07:00:08.115Z,1025.33
2022-12-03T07:01:08.090Z,1025.27
2022-12-03T07:02:08.129Z,1025.34
2022-12-03T07:03:08.113Z,1025.28
2022-12-03T07:04:08.066Z,1025.27
2022-12-03T07:05:08.058Z,1025.26
2022-12-03T07:06:08.028Z,1025.26
2022-12-03T07:07:08.013Z,1025.34
2022-12-03T07:08:08.084Z,1025.28
2022-12-03T07:09:08.042Z,1025.28
2022-12-03T07:10:07.980Z,1025.28
2022-12-03T07:11:07.954Z,1025.35
2022-12-03T07:12:07.947Z,1025.28
2022-12-03T07:13:07.921Z,1025.32
2022-12-03T07:14:08.011Z,1025.34
2022-12-03T07:15:07.908Z,1025.30
2022-12-03T07:16:07.993Z,1025.37
2022-12-03T07:17:07.873Z,1025.29
2022-12-03T07:18:07.863Z,1025.31
2022-12-03T07:19:07.886Z,1025.35
2022-12-03T07:20:07.838Z,1025.34
2022-12-03T07:21:07.819Z,1025.47
2022-12-03T07:22:07.825Z,1025.36
2022-12-03T07:23:07.799Z,1025.34
2022-12-03T07:24:07.809Z,1025.36
2022-12-03T07:25:07.774Z,1025.31
2022-12-03T07:26:07.800Z,1025.29
2022-12-03T07:27:07.793Z,1025.35
2022-12-03T07:28:07.744Z,1025.32
2022-12-03T07:29:07.741Z,1025.30
2022-12-03T07:30:07.720Z,1025.32
2022-12-03T07:31:07.731Z,1025.38
2022-12-03T07:32:07.691Z,1025.37
2022-12-03T07:33:07.660Z,1025.42
2022-12-03T07:34:07.661Z,1025.41
2022-12-03T07:35:07.653Z,1025.42
2022-12-03T07:36:07.660Z,1025.31
2022-12-03T07:37:07.608Z,1025.42
2022-12-03T07:38:07.599Z,1025.47
2022-12-03T07:39:07.664Z,1025.39
2022-12-03T07:40:07.585Z,1025.35
2022-12-03T07:41:07.569Z,1025.31
2022-12-03T07:42:07.557Z,1025.36
2022-12-03T07:43:07.528Z,1025.38
2022-12-03T07:44:13.820Z,1025.38
2022-12-03T07:45:08.515Z,1025.34
2022-12-03T07:46:07.513Z,1025.32
2022-12-03T07:47:07.581Z,1025.34
2022-12-03T07:48:07.483Z,1025.37
2022-12-03T07:49:07.486Z,1025.38
2022-12-03T07:50:07.444Z,1025.42
2022-12-03T07:51:08.187Z,1025.35
2022-12-03T07:52:07.446Z,1025.41
2022-12-03T07:53:07.402Z,1025.40
2022-12-03T07:54:07.409Z,1025.41
2022-12-03T07:55:07.380Z,1025.38
2022-12-03T07:56:07.382Z,1025.29
2022-12-03T07:57:07.364Z,1025.38
2022-12-03T07:58:07.359Z,1025.29
2022-12-03T07:59:07.342Z,1025.35
2022-12-03T08:00:07.331Z,1025.30
2022-12-03T08:01:07.354Z,1025.28
2022-12-03T08:02:07.339Z,1025.34
2022-12-03T08:03:07.278Z,1025.37
2022-12-03T08:04:07.280Z,1025.24
2022-12-03T08:05:07.267Z,1025.22
2022-12-03T08:06:07.252Z,1025.28
2022-12-03T08:07:07.232Z,1025.25
2022-12-03T08:08:07.331Z,1025.23
2022-12-03T08:09:07.217Z,1025.24
2022-12-03T08:10:07.200Z,1025.24
2022-12-03T08:11:07.172Z,1025.24
2022-12-03T08:12:07.180Z,1025.20
2022-12-03T08:13:07.163Z,1025.25
2022-12-03T08:14:07.158Z,1025.27
2022-12-03T08:15:07.121Z,1025.31
2022-12-03T08:16:07.203Z,1025.26
2022-12-03T08:17:07.093Z,1025.26
2022-12-03T08:18:07.120Z,1025.24
2022-12-03T08:19:07.066Z,1025.26
2022-12-03T08:20:07.096Z,1025.23
2022-12-03T08:21:07.041Z,1025.23
2022-12-03T08:22:07.044Z,1025.22
2022-12-03T08:23:07.023Z,1025.15
2022-12-03T08:24:07.013Z,1025.12
2022-12-03T08:25:07.005Z,1025.20
2022-12-03T08:26:07.009Z,1025.20
2022-12-03T08:27:06.974Z,1025.17
2022-12-03T08:28:06.981Z,1025.20
2022-12-03T08:29:06.952Z,1025.10
2022-12-03T08:30:06.946Z,1025.17
2022-12-03T08:31:07.067Z,1025.18
2022-12-03T08:32:06.959Z,1025.17
2022-12-03T08:33:06.898Z,1025.08
2022-12-03T08:34:06.936Z,1025.12
2022-12-03T08:35:06.892Z,1025.13
2022-12-03T08:36:06.848Z,1025.11
2022-12-03T08:37:09.826Z,1025.11
2022-12-03T08:38:06.845Z,1025.11
2022-12-03T08:39:06.816Z,1025.14
2022-12-03T08:40:06.814Z,1025.10
2022-12-03T08:41:06.793Z,1025.13
2022-12-03T08:42:12.126Z,1025.14
2022-12-03T08:43:07.760Z,1025.05
2022-12-03T08:44:06.744Z,1025.10
2022-12-03T08:45:06.763Z,1025.10
2022-12-03T08:46:06.786Z,1025.08
2022-12-03T08:47:06.710Z,1025.05
2022-12-03T08:48:06.695Z,1025.14
2022-12-03T08:49:06.678Z,1025.03
2022-12-03T08:50:06.681Z,1025.05
2022-12-03T08:51:06.653Z,1025.01
2022-12-03T08:52:06.643Z,1025.08
2022-12-03T08:53:06.624Z,1024.98
2022-12-03T08:54:06.697Z,1025.04
2022-12-03T08:55:06.694Z,1025.04
2022-12-03T08:56:06.597Z,1025.05
2022-12-03T08:57:06.572Z,1025.08
2022-12-03T08:58:06.568Z,1025.02
2022-12-03T08:59:06.559Z,1025.07
2022-12-03T09:00:06.556Z,1025.05
2022-12-03T09:01:06.597Z,1025.00
2022-12-03T09:02:06.530Z,1025.06
2022-12-03T09:03:06.509Z,1024.99
2022-12-03T09:04:06.552Z,1025.00
2022-12-03T09:05:06.487Z,1024.98
2022-12-03T09:06:06.458Z,1024.90
2022-12-03T09:07:06.459Z,1024.90
2022-12-03T09:08:06.521Z,1024.93
2022-12-03T09:09:06.968Z,1024.96
2022-12-03T09:10:06.430Z,1024.94
2022-12-03T09:11:06.406Z,1024.89
2022-12-03T09:12:06.380Z,1024.85
2022-12-03T09:13:06.366Z,1024.85
2022-12-03T09:14:06.359Z,1024.89
2022-12-03T09:15:06.361Z,1024.87
2022-12-03T09:16:06.406Z,1024.91
2022-12-03T09:17:06.389Z,1024.87
2022-12-03T09:18:06.307Z,1024.85
2022-12-03T09:19:06.291Z,1024.87
2022-12-03T09:20:06.306Z,1024.83
2022-12-03T09:21:06.275Z,1024.79
2022-12-03T09:22:06.264Z,1024.85
2022-12-03T09:23:06.259Z,1024.87
2022-12-03T09:24:06.221Z,1024.84
2022-12-03T09:25:06.244Z,1024.80
2022-12-03T09:26:06.203Z,1024.84
2022-12-03T09:27:06.190Z,1024.78
2022-12-03T09:28:06.166Z,1024.79
2022-12-03T09:29:10.572Z,1024.80
2022-12-03T09:30:07.182Z,1024.82
2022-12-03T09:31:06.151Z,1024.79
2022-12-03T09:32:06.267Z,1024.77
2022-12-03T09:33:06.108Z,1024.81
2022-12-03T09:34:06.096Z,1024.82
2022-12-03T09:35:06.111Z,1024.70
2022-12-03T09:36:06.075Z,1024.69
2022-12-03T09:37:06.071Z,1024.67
2022-12-03T09:38:06.733Z,1024.69
2022-12-03T09:39:06.037Z,1024.74
2022-12-03T09:40:06.052Z,1024.74
2022-12-03T09:41:06.010Z,1024.68
2022-12-03T09:42:06.023Z,1024.72
2022-12-03T09:43:06.000Z,1024.68
2022-12-03T09:44:07.116Z,1024.70
2022-12-03T09:45:05.988Z,1024.72
2022-12-03T09:46:06.048Z,1024.71
2022-12-03T09:47:06.011Z,1024.61
2022-12-03T09:48:05.910Z,1024.68
2022-12-03T09:49:09.453Z,1024.60
2022-12-03T09:50:06.906Z,1024.64
2022-12-03T09:51:05.889Z,1024.66
2022-12-03T09:52:05.866Z,1024.60
2022-12-03T09:53:05.853Z,1024.63
2022-12-03T09:54:05.851Z,1024.59
2022-12-03T09:55:05.841Z,1024.64
2022-12-03T09:56:05.821Z,1024.59
2022-12-03T09:57:05.799Z,1024.61
2022-12-03T09:58:05.783Z,1024.60
2022-12-03T09:59:05.779Z,1024.61
2022-12-03T10:00:05.764Z,1024.67
2022-12-03T10:01:05.809Z,1024.58
2022-12-03T10:02:05.833Z,1024.68
2022-12-03T10:03:05.721Z,1024.60
2022-12-03T10:04:05.787Z,1024.57
2022-12-03T10:05:05.784Z,1024.57
2022-12-03T10:06:05.702Z,1024.51
2022-12-03T10:07:05.669Z,1024.48
2022-12-03T10:08:05.720Z,1024.48
2022-12-03T10:09:05.649Z,1024.47
2022-12-03T10:10:05.638Z,1024.46
2022-12-03T10:11:05.662Z,1024.49
2022-12-03T10:12:05.623Z,1024.46
2022-12-03T10:13:05.598Z,1024.46
2022-12-03T10:14:05.573Z,1024.36
2022-12-03T10:15:05.566Z,1024.42
2022-12-03T10:16:05.573Z,1024.33
2022-12-03T10:17:05.600Z,1024.30
2022-12-03T10:18:05.541Z,1024.37
2022-12-03T10:19:05.516Z,1024.36
2022-12-03T10:20:05.496Z,1024.41
2022-12-03T10:21:05.506Z,1024.37
2022-12-03T10:22:05.482Z,1024.30
2022-12-03T10:23:05.472Z,1024.31
2022-12-03T10:24:05.461Z,1024.27
2022-12-03T10:25:05.432Z,1024.26
2022-12-03T10:26:05.434Z,1024.31
2022-12-03T10:27:05.423Z,1024.33
2022-12-03T10:28:05.404Z,1024.32
2022-12-03T10:29:05.390Z,1024.34
2022-12-03T10:30:05.373Z,1024.32
2022-12-03T10:31:05.396Z,1024.29
2022-12-03T10:32:05.352Z,1024.34
2022-12-03T10:33:05.359Z,1024.34
2022-12-03T10:34:05.333Z,1024.23
2022-12-03T10:35:05.319Z,1024.18
2022-12-03T10:36:05.301Z,1024.25
2022-12-03T10:37:05.283Z,1024.25
2022-12-03T10:38:05.268Z,1024.21
2022-12-03T10:39:05.272Z,1024.21
2022-12-03T10:40:05.253Z,1024.24
2022-12-03T10:41:05.237Z,1024.22
2022-12-03T10:42:05.223Z,1024.21
2022-12-03T10:43:05.214Z,1024.26
2022-12-03T10:44:05.191Z,1024.23
2022-12-03T10:45:05.205Z,1024.27
2022-12-03T10:46:05.229Z,1024.17
2022-12-03T10:47:05.304Z,1024.16
2022-12-03T10:48:06.935Z,1024.24
2022-12-03T10:49:05.128Z,1024.21
2022-12-03T10:50:05.108Z,1024.23
2022-12-03T10:51:05.107Z,1024.23
2022-12-03T10:52:05.091Z,1024.20
2022-12-03T10:53:05.082Z,1024.22
2022-12-03T10:54:05.058Z,1024.16
2022-12-03T10:55:05.048Z,1024.13
2022-12-03T10:56:05.046Z,1024.13
2022-12-03T10:57:05.027Z,1024.15
2022-12-03T10:58:05.011Z,1024.06
2022-12-03T10:59:04.994Z,1024.09
2022-12-03T11:00:04.991Z,1024.09
2022-12-03T11:01:05.068Z,1024.07
2022-12-03T11:02:05.119Z,1024.09
2022-12-03T11:03:05.001Z,1024.08
2022-12-03T11:04:05.077Z,1024.05
2022-12-03T11:05:04.925Z,1024.04
2022-12-03T11:06:04.927Z,1024.09
2022-12-03T11:07:04.914Z,1024.09
2022-12-03T11:08:04.915Z,1024.02
2022-12-03T11:09:08.776Z,1024.04
2022-12-03T11:10:04.857Z,1024.05
2022-12-03T11:11:04.844Z,1024.04
2022-12-03T11:12:04.839Z,1024.01
2022-12-03T11:13:04.849Z,1023.98
2022-12-03T11:14:04.816Z,1024.01
2022-12-03T11:15:04.790Z,1023.96
2022-12-03T11:16:04.836Z,1024.04
2022-12-03T11:17:04.771Z,1023.92
2022-12-03T11:18:04.748Z,1024.00
2022-12-03T11:19:04.751Z,1023.98
2022-12-03T11:20:04.720Z,1023.99
2022-12-03T11:21:04.710Z,1024.05
2022-12-03T11:22:04.704Z,1024.02
2022-12-03T11:23:04.694Z,1023.97
2022-12-03T11:24:04.678Z,1023.90
2022-12-03T11:25:04.694Z,1023.88
2022-12-03T11:26:04.641Z,1023.87
2022-12-03T11:27:04.645Z,1023.91
2022-12-03T11:28:04.624Z,1023.93
2022-12-03T11:29:04.624Z,1023.88
2022-12-03T11:30:04.596Z,1023.86
2022-12-03T11:31:04.648Z,1023.82
2022-12-03T11:32:04.611Z,1023.88
2022-12-03T11:33:04.578Z,1023.80
2022-12-03T11:34:04.540Z,1023.81
2022-12-03T11:35:04.550Z,1023.73
2022-12-03T11:36:04.517Z,1023.74
2022-12-03T11:37:04.518Z,1023.71
2022-12-03T11:38:04.490Z,1023.73
2022-12-03T11:39:04.492Z,1023.65
2022-12-03T11:40:04.576Z,1023.72
2022-12-03T11:41:04.450Z,1023.71
2022-12-03T11:42:04.446Z,1023.67
2022-12-03T11:43:04.430Z,1023.62
2022-12-03T11:44:04.411Z,1023.63
2022-12-03T11:45:05.081Z,1023.68
2022-12-03T11:46:04.656Z,1023.73
2022-12-03T11:47:04.447Z,1023.67
2022-12-03T11:48:04.358Z,1023.66
2022-12-03T11:49:04.352Z,1023.73
2022-12-03T11:50:04.365Z,1023.72
2022-12-03T11:51:04.336Z,1023.57
2022-12-03T11:52:04.320Z,1023.64
2022-12-03T11:53:04.289Z,1023.53
2022-12-03T11:54:04.278Z,1023.61
2022-12-03T11:55:04.441Z,1023.57
2022-12-03T11:56:04.813Z,1023.60
2022-12-03T11:57:04.255Z,1023.51
2022-12-03T11:58:04.221Z,1023.54
2022-12-03T11:59:04.218Z,1023.63
2022-12-03T12:00:04.237Z,1023.51
2022-12-03T12:01:04.200Z,1023.48
2022-12-03T12:02:04.186Z,1023.51
2022-12-03T12:03:04.195Z,1023.51
2022-12-03T12:04:04.180Z,1023.45
2022-12-03T12:05:04.151Z,1023.47